UAL26G KEWR-KIAD
Flight info
| Callsign | UAL26G |
|---|---|
| Flight time | 0h 45m |
| Altitude | 34000 |
| Route | PARKE HYPER9 |
| Aircraft | B38M/M-SDE1FGHILORVWXY/HB1 |
Departure
| Time | 2026-04-30 20:44 |
|---|---|
| Airport | Newark Liberty International Airport (KEWR) |
Arrival
| Time | 2026-04-30 21:29 |
|---|---|
| Airport | Washington Dulles International Airport (KIAD) |
| Time | Latitude | Longitude | Altitude | Speed | Heading |
|---|---|---|---|---|---|
| 2026-04-30 20:13 | 40.69405 | -74.17360 | 24 ft | 0 kts | 13° |
| 2026-04-30 20:32 | 40.69404 | -74.17360 | 24 ft | 1 kts | 13° |
| 2026-04-30 20:33 | 40.69388 | -74.17365 | 27 ft | 3 kts | 10° |
| 2026-04-30 20:33 | 40.69349 | -74.17374 | 26 ft | 3 kts | 19° |
| 2026-04-30 20:33 | 40.69335 | -74.17384 | 26 ft | 3 kts | 69° |
| 2026-04-30 20:34 | 40.69334 | -74.17390 | 27 ft | 1 kts | 102° |
| 2026-04-30 20:39 | 40.69330 | -74.17368 | 24 ft | 8 kts | 107° |
| 2026-04-30 20:40 | 40.69233 | -74.17130 | 24 ft | 19 kts | 115° |
| 2026-04-30 20:40 | 40.69262 | -74.17010 | 24 ft | 16 kts | 27° |
| 2026-04-30 20:40 | 40.69371 | -74.16941 | 25 ft | 18 kts | 26° |
| 2026-04-30 20:41 | 40.69633 | -74.16774 | 24 ft | 23 kts | 25° |
| 2026-04-30 20:41 | 40.69754 | -74.16696 | 27 ft | 14 kts | 25° |
| 2026-04-30 20:41 | 40.69825 | -74.16651 | 25 ft | 12 kts | 25° |
| 2026-04-30 20:41 | 40.69908 | -74.16599 | 24 ft | 14 kts | 26° |
| 2026-04-30 20:42 | 40.70004 | -74.16537 | 23 ft | 16 kts | 26° |
| 2026-04-30 20:42 | 40.70059 | -74.16497 | 24 ft | 7 kts | 48° |
| 2026-04-30 20:42 | 40.70066 | -74.16472 | 25 ft | 0 kts | 92° |
| 2026-04-30 20:43 | 40.70064 | -74.16447 | 23 ft | 8 kts | 95° |
| 2026-04-30 20:44 | 40.69857 | -74.16472 | 22 ft | 35 kts | 205° |
| 2026-04-30 20:44 | 40.69368 | -74.16784 | 26 ft | 120 kts | 205° |
| 2026-04-30 20:44 | 40.67277 | -74.18077 | 1035 ft | 190 kts | 208° |
| 2026-04-30 20:45 | 40.65267 | -74.18984 | 1151 ft | 181 kts | 184° |
| 2026-04-30 20:45 | 40.64025 | -74.18893 | 1284 ft | 180 kts | 178° |
| 2026-04-30 20:45 | 40.62808 | -74.19135 | 1393 ft | 177 kts | 207° |
| 2026-04-30 20:46 | 40.59248 | -74.21554 | 1933 ft | 216 kts | 210° |
| 2026-04-30 20:46 | 40.57863 | -74.22510 | 2038 ft | 231 kts | 211° |
| 2026-04-30 20:47 | 40.54938 | -74.24528 | 2061 ft | 250 kts | 210° |
| 2026-04-30 20:47 | 40.53381 | -74.25603 | 2181 ft | 256 kts | 211° |
| 2026-04-30 20:48 | 40.50915 | -74.28767 | 2428 ft | 256 kts | 253° |
| 2026-04-30 20:48 | 40.50450 | -74.31001 | 3338 ft | 251 kts | 257° |
| 2026-04-30 20:48 | 40.50021 | -74.33215 | 4600 ft | 252 kts | 257° |
| 2026-04-30 20:48 | 40.49603 | -74.35473 | 5733 ft | 255 kts | 257° |
| 2026-04-30 20:49 | 40.49194 | -74.37742 | 6793 ft | 259 kts | 258° |
| 2026-04-30 20:49 | 40.48785 | -74.40035 | 7920 ft | 259 kts | 257° |
| 2026-04-30 20:49 | 40.48377 | -74.42365 | 8927 ft | 264 kts | 257° |
| 2026-04-30 20:50 | 40.47550 | -74.47146 | 10670 ft | 280 kts | 258° |
| 2026-04-30 20:50 | 40.47108 | -74.49731 | 11131 ft | 300 kts | 258° |
| 2026-04-30 20:50 | 40.46641 | -74.52482 | 11662 ft | 316 kts | 258° |
| 2026-04-30 20:50 | 40.46156 | -74.55348 | 12304 ft | 327 kts | 258° |
| 2026-04-30 20:51 | 40.45663 | -74.58283 | 13212 ft | 329 kts | 258° |
| 2026-04-30 20:51 | 40.44679 | -74.64206 | 14839 ft | 334 kts | 258° |
| 2026-04-30 20:51 | 40.44202 | -74.67190 | 15648 ft | 335 kts | 258° |
| 2026-04-30 20:52 | 40.43736 | -74.70189 | 16454 ft | 337 kts | 258° |
| 2026-04-30 20:52 | 40.43275 | -74.73232 | 16886 ft | 342 kts | 258° |
| 2026-04-30 20:52 | 40.42360 | -74.79313 | 17020 ft | 339 kts | 258° |
| 2026-04-30 20:53 | 40.41907 | -74.82345 | 17006 ft | 339 kts | 258° |
| 2026-04-30 20:53 | 40.41454 | -74.85378 | 17001 ft | 339 kts | 258° |
| 2026-04-30 20:53 | 40.41002 | -74.88420 | 17298 ft | 340 kts | 258° |
| 2026-04-30 20:54 | 40.40112 | -74.94532 | 18710 ft | 343 kts | 258° |
| 2026-04-30 20:54 | 40.39671 | -74.97615 | 19304 ft | 345 kts | 258° |
| 2026-04-30 20:54 | 40.39230 | -75.00725 | 19904 ft | 348 kts | 258° |
| 2026-04-30 20:55 | 40.38350 | -75.07010 | 21060 ft | 354 kts | 258° |
| 2026-04-30 20:55 | 40.37906 | -75.10196 | 21615 ft | 357 kts | 258° |
| 2026-04-30 20:55 | 40.37471 | -75.13405 | 22133 ft | 359 kts | 258° |
| 2026-04-30 20:56 | 40.36489 | -75.19975 | 22556 ft | 374 kts | 258° |
| 2026-04-30 20:56 | 40.36016 | -75.23298 | 23475 ft | 367 kts | 258° |
| 2026-04-30 20:56 | 40.35116 | -75.29809 | 24393 ft | 372 kts | 257° |
| 2026-04-30 20:57 | 40.34657 | -75.33157 | 24832 ft | 374 kts | 258° |
| 2026-04-30 20:57 | 40.34226 | -75.36287 | 25216 ft | 377 kts | 258° |
| 2026-04-30 20:57 | 40.33718 | -75.39861 | 25385 ft | 383 kts | 258° |
| 2026-04-30 20:58 | 40.32761 | -75.46718 | 26400 ft | 383 kts | 258° |
| 2026-04-30 20:58 | 40.32275 | -75.50166 | 26753 ft | 386 kts | 258° |
| 2026-04-30 20:58 | 40.31787 | -75.53639 | 27167 ft | 389 kts | 258° |
| 2026-04-30 20:58 | 40.31301 | -75.57088 | 27544 ft | 391 kts | 258° |
| 2026-04-30 20:59 | 40.30302 | -75.64194 | 28283 ft | 396 kts | 258° |
| 2026-04-30 20:59 | 40.29803 | -75.67745 | 28648 ft | 399 kts | 258° |
| 2026-04-30 21:00 | 40.28791 | -75.74934 | 29360 ft | 404 kts | 258° |
| 2026-04-30 21:00 | 40.27603 | -75.82113 | 30075 ft | 407 kts | 249° |
| 2026-04-30 21:01 | 40.24911 | -75.88626 | 30734 ft | 408 kts | 244° |
| 2026-04-30 21:01 | 40.23623 | -75.91940 | 30948 ft | 410 kts | 244° |
| 2026-04-30 21:01 | 40.21129 | -75.98457 | 30527 ft | 400 kts | 244° |
| 2026-04-30 21:02 | 40.19878 | -76.01748 | 30530 ft | 406 kts | 244° |
| 2026-04-30 21:02 | 40.17350 | -76.08393 | 30549 ft | 409 kts | 244° |
| 2026-04-30 21:03 | 40.14816 | -76.15043 | 30570 ft | 408 kts | 245° |
| 2026-04-30 21:03 | 40.12283 | -76.21674 | 30552 ft | 407 kts | 245° |
| 2026-04-30 21:04 | 40.09754 | -76.28277 | 30552 ft | 407 kts | 245° |
| 2026-04-30 21:04 | 40.08488 | -76.31579 | 30267 ft | 403 kts | 245° |
| 2026-04-30 21:04 | 40.06015 | -76.38017 | 28192 ft | 390 kts | 245° |
| 2026-04-30 21:05 | 40.04808 | -76.41154 | 27259 ft | 383 kts | 245° |
| 2026-04-30 21:05 | 40.03613 | -76.44257 | 26360 ft | 385 kts | 245° |
| 2026-04-30 21:05 | 40.02401 | -76.47399 | 25460 ft | 389 kts | 245° |
| 2026-04-30 21:05 | 40.01182 | -76.50560 | 24609 ft | 392 kts | 245° |
| 2026-04-30 21:06 | 39.99953 | -76.53740 | 23750 ft | 388 kts | 245° |
| 2026-04-30 21:06 | 39.98761 | -76.56821 | 22870 ft | 377 kts | 245° |
| 2026-04-30 21:06 | 39.97594 | -76.59836 | 21966 ft | 368 kts | 245° |
| 2026-04-30 21:06 | 39.96448 | -76.62685 | 21127 ft | 360 kts | 241° |
| 2026-04-30 21:07 | 39.95166 | -76.65391 | 20335 ft | 351 kts | 241° |
| 2026-04-30 21:07 | 39.93905 | -76.68080 | 19573 ft | 344 kts | 241° |
| 2026-04-30 21:07 | 39.92674 | -76.70722 | 18852 ft | 337 kts | 241° |
| 2026-04-30 21:07 | 39.91471 | -76.73312 | 18153 ft | 332 kts | 241° |
| 2026-04-30 21:08 | 39.90288 | -76.75861 | 17373 ft | 326 kts | 241° |
| 2026-04-30 21:08 | 39.89121 | -76.78375 | 16627 ft | 324 kts | 241° |
| 2026-04-30 21:08 | 39.87941 | -76.80916 | 15874 ft | 330 kts | 241° |
| 2026-04-30 21:08 | 39.86755 | -76.83471 | 15220 ft | 333 kts | 241° |
| 2026-04-30 21:09 | 39.85549 | -76.86064 | 14689 ft | 335 kts | 240° |
| 2026-04-30 21:09 | 39.84341 | -76.88659 | 14244 ft | 335 kts | 240° |
| 2026-04-30 21:09 | 39.83137 | -76.91245 | 13939 ft | 328 kts | 241° |
| 2026-04-30 21:09 | 39.81985 | -76.93698 | 13721 ft | 309 kts | 240° |
| 2026-04-30 21:10 | 39.80891 | -76.96028 | 13344 ft | 295 kts | 240° |
| 2026-04-30 21:10 | 39.79844 | -76.98253 | 13028 ft | 282 kts | 240° |
| 2026-04-30 21:10 | 39.78846 | -77.00377 | 12820 ft | 267 kts | 240° |
| 2026-04-30 21:10 | 39.77893 | -77.02403 | 12592 ft | 262 kts | 240° |
| 2026-04-30 21:11 | 39.76940 | -77.04425 | 12312 ft | 262 kts | 240° |
| 2026-04-30 21:11 | 39.75990 | -77.06441 | 12059 ft | 261 kts | 240° |
| 2026-04-30 21:11 | 39.75041 | -77.08452 | 11787 ft | 262 kts | 240° |
| 2026-04-30 21:11 | 39.74087 | -77.10473 | 11494 ft | 262 kts | 240° |
| 2026-04-30 21:12 | 39.73135 | -77.12488 | 11194 ft | 263 kts | 240° |
| 2026-04-30 21:12 | 39.72180 | -77.14509 | 10909 ft | 262 kts | 240° |
| 2026-04-30 21:12 | 39.71228 | -77.16524 | 10629 ft | 261 kts | 240° |
| 2026-04-30 21:12 | 39.70289 | -77.18507 | 10357 ft | 261 kts | 240° |
| 2026-04-30 21:13 | 39.69340 | -77.20513 | 10092 ft | 260 kts | 240° |
| 2026-04-30 21:13 | 39.68149 | -77.22271 | 9846 ft | 262 kts | 218° |
| 2026-04-30 21:13 | 39.66509 | -77.23320 | 9694 ft | 264 kts | 207° |
| 2026-04-30 21:13 | 39.64809 | -77.24244 | 9487 ft | 265 kts | 207° |
| 2026-04-30 21:14 | 39.63110 | -77.25145 | 9286 ft | 264 kts | 207° |
| 2026-04-30 21:14 | 39.61404 | -77.26036 | 9100 ft | 264 kts | 206° |
| 2026-04-30 21:14 | 39.59698 | -77.26916 | 8925 ft | 264 kts | 206° |
| 2026-04-30 21:14 | 39.57998 | -77.27785 | 8752 ft | 263 kts | 207° |
| 2026-04-30 21:15 | 39.56296 | -77.28651 | 8570 ft | 263 kts | 207° |
| 2026-04-30 21:15 | 39.54597 | -77.29514 | 8360 ft | 262 kts | 206° |
| 2026-04-30 21:15 | 39.52903 | -77.30370 | 8208 ft | 262 kts | 207° |
| 2026-04-30 21:15 | 39.51205 | -77.31230 | 8042 ft | 262 kts | 207° |
| 2026-04-30 21:16 | 39.49506 | -77.32088 | 7846 ft | 261 kts | 206° |
| 2026-04-30 21:16 | 39.47811 | -77.32946 | 7660 ft | 261 kts | 207° |
| 2026-04-30 21:16 | 39.46121 | -77.33800 | 7512 ft | 261 kts | 207° |
| 2026-04-30 21:16 | 39.44433 | -77.34653 | 7301 ft | 260 kts | 207° |
| 2026-04-30 21:17 | 39.42748 | -77.35502 | 7131 ft | 260 kts | 207° |
| 2026-04-30 21:17 | 39.41029 | -77.36248 | 6974 ft | 265 kts | 193° |
| 2026-04-30 21:17 | 39.39152 | -77.36304 | 6731 ft | 271 kts | 184° |
| 2026-04-30 21:17 | 39.37265 | -77.36266 | 6429 ft | 272 kts | 184° |
| 2026-04-30 21:18 | 39.35379 | -77.36225 | 6165 ft | 270 kts | 184° |
| 2026-04-30 21:18 | 39.33505 | -77.36184 | 5897 ft | 269 kts | 184° |
| 2026-04-30 21:18 | 39.31627 | -77.36139 | 5619 ft | 268 kts | 184° |
| 2026-04-30 21:18 | 39.29770 | -77.36095 | 5379 ft | 266 kts | 183° |
| 2026-04-30 21:19 | 39.27927 | -77.36052 | 5135 ft | 267 kts | 183° |
| 2026-04-30 21:19 | 39.26055 | -77.36005 | 4979 ft | 270 kts | 183° |
| 2026-04-30 21:19 | 39.24179 | -77.35957 | 4768 ft | 270 kts | 183° |
| 2026-04-30 21:19 | 39.22306 | -77.35911 | 4582 ft | 270 kts | 183° |
| 2026-04-30 21:20 | 39.20427 | -77.35866 | 4370 ft | 269 kts | 184° |
| 2026-04-30 21:20 | 39.18563 | -77.35820 | 4170 ft | 267 kts | 183° |
| 2026-04-30 21:20 | 39.16712 | -77.35775 | 4024 ft | 265 kts | 184° |
| 2026-04-30 21:20 | 39.14869 | -77.35770 | 3999 ft | 265 kts | 184° |
| 2026-04-30 21:21 | 39.13025 | -77.35767 | 3968 ft | 265 kts | 185° |
| 2026-04-30 21:21 | 39.11170 | -77.35764 | 3935 ft | 266 kts | 184° |
| 2026-04-30 21:21 | 39.07483 | -77.35752 | 3860 ft | 264 kts | 184° |
| 2026-04-30 21:22 | 39.05649 | -77.35749 | 3887 ft | 265 kts | 184° |
| 2026-04-30 21:22 | 39.00141 | -77.35731 | 3783 ft | 265 kts | 184° |
| 2026-04-30 21:23 | 38.98299 | -77.35725 | 3763 ft | 266 kts | 184° |
| 2026-04-30 21:23 | 38.96447 | -77.35719 | 3732 ft | 265 kts | 184° |
| 2026-04-30 21:23 | 38.92746 | -77.35706 | 3665 ft | 265 kts | 184° |
| 2026-04-30 21:24 | 38.90905 | -77.35705 | 3640 ft | 266 kts | 185° |
| 2026-04-30 21:24 | 38.89049 | -77.35745 | 3620 ft | 265 kts | 185° |
| 2026-04-30 21:24 | 38.87211 | -77.35786 | 3583 ft | 264 kts | 185° |
| 2026-04-30 21:24 | 38.85379 | -77.35827 | 3586 ft | 263 kts | 185° |
| 2026-04-30 21:25 | 38.81819 | -77.36291 | 3347 ft | 244 kts | 211° |
| 2026-04-30 21:25 | 38.80589 | -77.37587 | 2944 ft | 222 kts | 240° |
| 2026-04-30 21:25 | 38.80114 | -77.39395 | 2349 ft | 213 kts | 272° |
| 2026-04-30 21:26 | 38.81273 | -77.42534 | 2049 ft | 194 kts | 304° |
| 2026-04-30 21:26 | 38.82002 | -77.43998 | 2012 ft | 195 kts | 308° |
| 2026-04-30 21:27 | 38.84541 | -77.44521 | 1956 ft | 192 kts | 6° |
| 2026-04-30 21:27 | 38.85737 | -77.44260 | 1745 ft | 165 kts | 2° |
| 2026-04-30 21:27 | 38.86796 | -77.43899 | 1446 ft | 151 kts | 16° |
| 2026-04-30 21:28 | 38.88662 | -77.43541 | 1207 ft | 132 kts | 351° |
| 2026-04-30 21:28 | 38.89575 | -77.43552 | 982 ft | 128 kts | 354° |
| 2026-04-30 21:28 | 38.91390 | -77.43643 | 543 ft | 133 kts | 354° |
| 2026-04-30 21:29 | 38.92288 | -77.43642 | 358 ft | 124 kts | 355° |
| 2026-04-30 21:29 | 38.93875 | -77.43648 | 305 ft | 33 kts | 343° |
| 2026-04-30 21:30 | 38.94040 | -77.43741 | 300 ft | 0 kts | 330° |
| 2026-04-30 21:31 | 38.94052 | -77.43750 | 300 ft | 9 kts | 329° |
| 2026-04-30 21:32 | 38.94361 | -77.43869 | 297 ft | 19 kts | 356° |
| 2026-04-30 21:32 | 38.94407 | -77.43953 | 295 ft | 14 kts | 271° |
| 2026-04-30 21:32 | 38.94409 | -77.44093 | 295 ft | 18 kts | 271° |
| 2026-04-30 21:32 | 38.94412 | -77.44138 | 299 ft | 4 kts | 290° |
| 2026-04-30 21:33 | 38.94445 | -77.44167 | 296 ft | 7 kts | 358° |
| 2026-04-30 21:33 | 38.94479 | -77.44156 | 295 ft | 1 kts | 16° |
| 2026-04-30 21:33 | 38.94490 | -77.44152 | 297 ft | 0 kts | 16° |